Stations météo

Publicité
Leuchtturm Kiel, Allemagne (10044): Température de l'air & dewpoint: 07.12.2018 12:00:00 - 13.12.2018 12:00:00 (CET)Leuchtturm Kiel, Allemagne (10044): Vitesse du vent & gusts: 07.12.2018 12:00:00 - 13.12.2018 12:00:00 (CET)Leuchtturm Kiel, Allemagne (10044): Direction du vent: 07.12.2018 12:00:00 - 13.12.2018 12:00:00 (CET)Leuchtturm Kiel, Allemagne (10044): reduced air pressure: 07.12.2018 12:00:00 - 13.12.2018 12:00:00 (CET)Leuchtturm Kiel, Allemagne (10044): Ensoleillement: 07.12.2018 12:00:00 - 13.12.2018 12:00:00 (CET)
Date & Time tt [°C] td [°C] ff [km/h] ff [knt] fx [km/h] fx [knt] dd ppp [hPa] sd [min]
13.12.2018 12:00:00 3,4 1,5 48 26 54 29 E 1026,1 2
13.12.2018 11:00:00 3,3 1,6 37 20 44 24 ENE 1026,4 0
13.12.2018 10:00:00 2,6 0,5 33 18 42 23 ENE 1026,8 0
13.12.2018 09:00:00 2,2 0,5 42 23 46 25 ENE 1027,0 0
13.12.2018 08:00:00 2,4 -0,3 41 22 46 25 ENE 1027,0 0
13.12.2018 07:00:00 1,8 0,2 22 12 38 20 ENE 1027,3 0
13.12.2018 06:00:00 2,1 -1,6 29 16 46 25 ENE 1027,6 0
13.12.2018 05:00:00 2,7 -1,2 24 13 43 23 ENE 1028,1 0
13.12.2018 04:00:00 2,9 -1,3 32 18 41 22 NE 1028,4 0
13.12.2018 03:00:00 3,3 -0,9 34 18 38 20 ENE 1028,6 0
13.12.2018 02:00:00 3,6 -1,4 28 15 42 23 E 1028,7 0
13.12.2018 01:00:00 4,0 -0,9 31 17 46 25 E 1028,8 0
13.12.2018 00:00:00 4,2 -0,2 35 19 47 25 E 1028,9 0
12.12.2018 23:00:00 4,5 0,0 43 23 51 28 ENE 1028,7 0
12.12.2018 22:00:00 4,5 1,1 41 22 52 28 ENE 1028,7 0
12.12.2018 21:00:00 4,8 1,2 43 23 53 28 E 1028,5 0
12.12.2018 20:00:00 4,1 2,0 45 24 51 27 ENE 1028,5 0
12.12.2018 19:00:00 4,5 1,7 41 22 47 25 ENE 1028,5 0
12.12.2018 18:00:00 4,7 0,9 41 22 45 24 ENE 1028,3 0
12.12.2018 17:00:00 4,3 0,5 32 17 36 19 ENE 1028,5 0
12.12.2018 16:00:00 4,4 0,2 24 13 38 20 ENE 1028,3 0
12.12.2018 15:00:00 4,2 0,3 31 17 42 23 ENE 1028,3 0
12.12.2018 14:00:00 4,0 0,1 31 17 45 25 NE 1028,5 0
12.12.2018 13:00:00 4,1 0,5 34 19 38 20 ENE 1028,1 0
12.12.2018 12:00:00 4,4 1,3 31 17 41 22 ENE 1028,1 2
12.12.2018 11:00:00 4,3 1,0 35 19 46 25 ENE 1028,0 0
12.12.2018 10:00:00 4,5 1,5 36 19 41 22 NE 1027,5 0
12.12.2018 09:00:00 4,8 1,6 36 19 41 22 NE 1027,2 0
12.12.2018 08:00:00 4,9 1,3 37 20 42 23 ENE 1026,6 0
12.12.2018 07:00:00 5,1 1,4 36 20 40 22 ENE 1026,0 0
12.12.2018 06:00:00 5,1 0,7 26 14 35 19 NE 1025,6 0
12.12.2018 05:00:00 5,0 0,5 31 17 41 22 NE 1025,4 0
12.12.2018 04:00:00 5,0 0,6 29 16 37 20 NNE 1025,2 0
12.12.2018 03:00:00 5,0 0,6 32 17 38 20 NE 1025,0 0
12.12.2018 02:00:00 5,0 0,7 31 17 43 23 NE 1024,4 0
12.12.2018 01:00:00 5,1 0,7 32 17 43 23 NE 1024,1 0
12.12.2018 00:00:00 5,2 1,7 29 16 39 21 NNE 1023,6 0
11.12.2018 23:00:00 5,1 1,9 33 18 42 23 NNE 1022,9 0
11.12.2018 22:00:00 5,2 1,5 37 20 43 23 NNE 1022,5 0
11.12.2018 21:00:00 4,9 2,1 34 18 45 24 NNE 1022,3 0
11.12.2018 20:00:00 5,2 1,9 36 20 44 24 N 1021,7 0
11.12.2018 19:00:00 5,3 1,2 37 20 55 30 NNE 1021,3 0
11.12.2018 18:00:00 5,4 0,2 44 24 56 30 N 1020,4 0
11.12.2018 17:00:00 5,5 1,3 43 23 57 31 NNE 1020,1 0
11.12.2018 16:00:00 5,7 1,4 44 24 53 29 N 1019,5 0
11.12.2018 15:00:00 5,6 0,9 45 24 53 28 N 1019,0 0
11.12.2018 14:00:00 5,4 1,0 40 22 50 27 N 1018,6 0
11.12.2018 13:00:00 5,3 1,7 41 22 54 29 N 1017,9 4
11.12.2018 12:00:00 5,4 1,7 44 24 54 29 N 1017,3 4
11.12.2018 11:00:00 5,1 1,4 44 24 54 29 NNW 1017,0 19
11.12.2018 10:00:00 5,1 1,2 44 24 56 30 NNW 1016,7 0
11.12.2018 09:00:00 5,1 0,7 44 24 53 29 NNW 1015,8 0
11.12.2018 08:00:00 5,3 0,4 43 23 53 28 N 1015,3 0
11.12.2018 07:00:00 5,4 1,2 45 24 58 31 NNW 1014,7 0
11.12.2018 06:00:00 5,3 1,3 51 27 62 33 NNW 1014,0 0
11.12.2018 05:00:00 5,4 0,9 50 27 60 33 NW 1013,5 0
11.12.2018 04:00:00 4,9 1,1 43 23 51 27 NW 1013,0 0
11.12.2018 03:00:00 5,1 1,3 42 23 57 31 WNW 1012,4 0
11.12.2018 02:00:00 5,3 1,4 45 25 54 29 NW 1011,9 0
11.12.2018 01:00:00 5,5 1,7 46 25 58 31 NW 1011,6 0
11.12.2018 00:00:00 5,7 2,0 50 27 58 31 NW 1011,0 0
10.12.2018 23:00:00 5,6 2,1 49 26 58 32 NW 1010,5 0
10.12.2018 22:00:00 5,8 1,9 51 27 61 33 NW 1010,1 0
10.12.2018 21:00:00 5,7 1,9 49 27 59 32 NW 1009,8 0
10.12.2018 20:00:00 5,7 2,2 48 26 60 33 WNW 1009,1 0
10.12.2018 19:00:00 6,0 2,0 52 28 63 34 NW 1008,6 0
10.12.2018 18:00:00 6,0 2,6 52 28 72 39 NW 1008,3 0
10.12.2018 17:00:00 5,8 2,5 61 33 80 43 NW 1008,0 0
10.12.2018 16:00:00 6,7 1,9 53 29 64 34 WNW 1007,3 0
10.12.2018 15:00:00 6,1 1,9 49 27 67 36 WNW 1007,2 10
10.12.2018 14:00:00 6,0 2,6 50 27 64 34 W 1007,0 53
10.12.2018 13:00:00 4,9 1,7 52 28 74 40 W 1007,1 11
10.12.2018 12:00:00 5,9 1,9 48 26 74 40 W 1007,7 42
10.12.2018 11:00:00 5,6 1,4 52 28 62 34 W 1007,6 44
10.12.2018 10:00:00 5,1 1,9 44 24 67 36 WNW 1007,8 11
10.12.2018 09:00:00 4,7 0,8 56 31 69 37 WNW 1006,8 0
10.12.2018 08:00:00 5,5 1,4 51 28 61 33 WNW 1006,5 0
10.12.2018 07:00:00 5,4 1,0 49 26 66 35 WNW 1005,9 0
10.12.2018 06:00:00 5,7 0,5 49 26 66 36 WNW 1005,3 0
10.12.2018 05:00:00 5,7 0,7 49 26 61 33 W 1004,5 0
10.12.2018 04:00:00 5,6 1,4 46 25 58 31 W 1004,2 0
10.12.2018 03:00:00 5,7 1,6 50 27 76 41 WNW 1003,6 0
10.12.2018 02:00:00 6,2 1,8 56 30 68 37 WNW 1002,7 0
10.12.2018 01:00:00 5,9 1,9 51 28 66 36 WNW 1002,1 0
10.12.2018 00:00:00 6,2 2,0 49 26 62 34 WNW 1001,1 0
09.12.2018 23:00:00 6,2 2,4 45 24 55 30 W 1000,5 0
09.12.2018 22:00:00 6,3 2,9 46 25 55 30 WNW 999,3 0
09.12.2018 21:00:00 6,8 1,9 49 26 64 35 WNW 998,0 0
09.12.2018 20:00:00 7,0 2,4 55 30 73 40 WNW 996,3 0
09.12.2018 19:00:00 7,2 2,8 59 32 75 40 WNW 994,5 0
09.12.2018 18:00:00 7,3 2,9 54 29 65 35 WNW 992,8 0
09.12.2018 17:00:00 7,6 3,4 54 29 65 35 WNW 991,5 0
09.12.2018 16:00:00 7,7 4,2 46 25 59 32 W 990,4 0
09.12.2018 15:00:00 7,3 4,5 50 27 59 32 W 989,3 0
09.12.2018 14:00:00 7,3 5,1 46 25 60 32 W 988,2 0
09.12.2018 13:00:00 7,4 4,2 45 24 56 30 W 987,9 1
09.12.2018 12:00:00 7,6 4,9 37 20 46 25 WSW 987,6 52
09.12.2018 11:00:00 7,2 5,1 39 21 46 25 W 987,2 0
09.12.2018 10:00:00 7,2 5,2 39 21 49 26 W 986,4 1
09.12.2018 09:00:00 7,1 5,3 36 20 54 29 WSW 985,6 0
09.12.2018 08:00:00 7,1 5,2 38 21 51 28 WSW 984,7 0
09.12.2018 07:00:00 7,1 5,1 42 23 50 27 WSW 984,0 0
09.12.2018 06:00:00 7,1 5,8 39 21 50 27 WSW 983,7 0
09.12.2018 05:00:00 7,1 5,4 38 21 46 25 WSW 983,2 0
09.12.2018 04:00:00 7,0 5,5 37 20 45 24 WSW 983,1 0
09.12.2018 03:00:00 6,7 5,3 32 17 46 25 WSW 983,3 0
09.12.2018 02:00:00 7,0 5,2 39 21 54 29 SW 983,4 0
09.12.2018 01:00:00 7,4 4,7 49 27 63 34 SW 984,2 0
09.12.2018 00:00:00 7,5 5,0 46 25 71 39 SW 985,3 0
08.12.2018 23:00:00 7,9 4,5 59 32 79 42 SW 985,8 0
08.12.2018 22:00:00 8,1 4,9 63 34 81 44 SW 986,7 0
08.12.2018 21:00:00 7,7 5,5 65 35 87 47 WSW 987,4 0
08.12.2018 20:00:00 8,3 5,5 69 37 94 51 WSW 987,5 0
08.12.2018 19:00:00 7,9 5,6 62 34 82 44 WSW 987,8 0
08.12.2018 18:00:00 8,7 5,5 65 35 96 52 WSW 987,9 0
08.12.2018 17:00:00 8,2 5,9 67 36 86 47 WSW 988,1 0
08.12.2018 16:00:00 8,5 5,8 67 36 84 46 WSW 988,1 0
08.12.2018 15:00:00 8,1 6,3 63 34 81 44 WSW 988,5 0
08.12.2018 14:00:00 8,0 6,1 61 33 80 43 SW 988,9 0
08.12.2018 13:00:00 7,4 5,9 69 37 96 52 SW 989,1 0
08.12.2018 12:00:00 6,8 5,7 69 38 87 47 SW 989,7 0
08.12.2018 11:00:00 7,3 5,0 69 37 84 45 SW 990,5 0
08.12.2018 10:00:00 7,3 4,5 66 35 83 45 SW 991,1 0
08.12.2018 09:00:00 6,3 4,6 63 34 87 47 SW 991,9 0
08.12.2018 08:00:00 6,1 4,2 65 35 85 46 SW 992,3 0
08.12.2018 07:00:00 5,8 3,7 62 34 89 48 SSW 992,4 0
08.12.2018 06:00:00 6,1 3,3 62 33 80 43 SW 993,7 0
08.12.2018 05:00:00 6,1 3,2 66 35 80 43 SW 993,9 0
08.12.2018 04:00:00 6,5 3,6 54 29 75 40 SW 994,3 0
08.12.2018 03:00:00 7,5 3,4 45 25 58 31 WSW 994,2 0
08.12.2018 02:00:00 7,5 4,2 46 25 55 30 WSW 993,8 0
08.12.2018 01:00:00 7,5 3,9 44 24 64 35 W 993,1 0
08.12.2018 00:00:00 7,5 4,7 50 27 67 36 W 992,3 0
07.12.2018 23:00:00 7,8 6,0 54 29 69 37 W 991,1 0
07.12.2018 22:00:00 9,8 8,4 55 30 68 37 WSW 989,6 0
07.12.2018 21:00:00 10,1 9,0 46 25 60 32 SSW 989,9 0
07.12.2018 20:00:00 10,0 8,9 48 26 60 33 SSW 990,6 0
07.12.2018 19:00:00 10,2 9,2 51 28 60 33 SSW 991,6 0
07.12.2018 18:00:00 10,3 9,3 47 26 56 30 SSW 992,8 0
07.12.2018 17:00:00 10,3 9,8 44 24 62 33 SSW 994,0 0
07.12.2018 16:00:00 11,1 9,5 50 27 60 32 SW 995,1 0
07.12.2018 15:00:00 10,2 10,1 39 21 46 25 SSW 996,3 0
07.12.2018 14:00:00 10,3 10,2 43 23 48 26 SSW 997,5 0
07.12.2018 13:00:00 10,5 9,9 40 21 45 24 SSW 998,8 0
07.12.2018 12:00:00 10,3 10,2 34 19 46 25 SSW 1000,3 0

tt = Température de l'air
td = dewpoint
ff = Vitesse du vent
fx = gusts
dd = Direction du vent
ppp = reduced air pressure
sd = Ensoleillement

stations d'obs. à proximité